Time;durP1;ratioP1;P1;durP2;ratioP2;P2;SDS_P1;SDS_P2;PMS_P1;PMS_P2;Temp;Humidity;BMP_temperature;BMP_pressure;BME280_temperature;BME280_humidity;BME280_pressure;Samples;Min_cycle;Max_cycle;Signal;HPM_P1;HPM_P2
2023/08/07 00:02:25;;;;;;;1999.90;999.90;;;;;;;;;;6738772;88;20765;-78
2023/08/07 00:12:26;;;;;;;1999.90;999.90;;;;;;;;;;6739537;88;20204;-79
2023/08/07 00:22:27;;;;;;;1999.90;999.90;;;;;;;;;;6744935;88;20185;-77
2023/08/07 00:32:28;;;;;;;1999.90;999.90;;;;;;;;;;6738865;88;20279;-78
2023/08/07 00:42:29;;;;;;;1999.90;999.90;;;;;;;;;;6741195;88;20307;-78
2023/08/07 00:52:30;;;;;;;1999.90;999.90;;;;;;;;;;6740533;88;20227;-78
2023/08/07 01:02:31;;;;;;;1999.90;999.90;;;;;;;;;;6733425;88;20221;-77
2023/08/07 01:12:39;;;;;;;1999.90;999.90;;;;;;;;;;6737747;88;21240;-78
2023/08/07 01:22:40;;;;;;;1999.90;999.90;;;;;;;;;;6739727;88;20201;-78
2023/08/07 01:33:00;;;;;;;1999.90;999.90;;;;;;;;;;6730852;88;20210;-77
2023/08/07 01:43:01;;;;;;;1999.90;999.90;;;;;;;;;;6739422;88;20197;-77
2023/08/07 01:53:02;;;;;;;1999.90;999.90;;;;;;;;;;6738435;88;20199;-77
2023/08/07 02:03:24;;;;;;;1999.90;999.90;;;;;;;;;;6750312;77;20174;-80
2023/08/07 02:13:25;;;;;;;1999.90;999.90;;;;;;;;;;6723193;88;20227;-81
2023/08/07 02:23:27;;;;;;;1999.90;999.90;;;;;;;;;;6721086;88;20173;-80
2023/08/07 02:33:30;;;;;;;1999.90;999.90;;;;;;;;;;6724388;88;20189;-80
2023/08/07 02:43:33;;;;;;;1999.90;999.90;;;;;;;;;;6722226;88;20178;-81
2023/08/07 02:53:33;;;;;;;1999.90;999.90;;;;;;;;;;6716815;88;20325;-82
2023/08/07 03:03:35;;;;;;;1999.90;999.90;;;;;;;;;;6722681;88;20234;-81
2023/08/07 03:13:36;;;;;;;1999.90;999.90;;;;;;;;;;6750422;88;20196;-80
2023/08/07 03:23:37;;;;;;;1999.90;999.90;;;;;;;;;;6756575;88;20230;-80
2023/08/07 03:33:38;;;;;;;1999.90;999.90;;;;;;;;;;6746649;88;20222;-80
2023/08/07 03:43:39;;;;;;;1999.90;999.90;;;;;;;;;;6749923;88;20196;-80
2023/08/07 03:53:40;;;;;;;1999.90;999.90;;;;;;;;;;6752939;88;20631;-82
2023/08/07 04:03:41;;;;;;;1999.90;999.90;;;;;;;;;;6757962;88;20291;-82
2023/08/07 04:13:42;;;;;;;1999.90;999.90;;;;;;;;;;6748707;88;21229;-82
2023/08/07 04:23:43;;;;;;;1999.90;999.90;;;;;;;;;;6756027;88;20196;-81
2023/08/07 04:33:44;;;;;;;1999.90;999.90;;;;;;;;;;6753229;88;20228;-80
2023/08/07 04:43:45;;;;;;;1999.90;999.90;;;;;;;;;;6752528;88;20192;-81
2023/08/07 04:53:46;;;;;;;1999.90;999.90;;;;;;;;;;6753409;88;20185;-79
2023/08/07 05:03:47;;;;;;;1999.90;999.90;;;;;;;;;;6753279;88;20287;-81
2023/08/07 05:13:48;;;;;;;1999.90;999.90;;;;;;;;;;6756955;88;20168;-82
2023/08/07 05:23:53;;;;;;;1999.90;999.90;;;;;;;;;;6753328;88;20214;-82
2023/08/07 05:33:54;;;;;;;1999.90;999.90;;;;;;;;;;6750949;88;20207;-80
2023/08/07 05:43:55;;;;;;;1999.90;999.90;;;;;;;;;;6743531;88;20631;-80
2023/08/07 05:53:56;;;;;;;1999.90;999.90;;;;;;;;;;6746587;88;20998;-79
2023/08/07 06:03:59;;;;;;;1999.90;999.90;;;;;;;;;;6752017;87;20196;-81
2023/08/07 06:14:00;;;;;;;1999.90;999.90;;;;;;;;;;6749638;88;20658;-80
2023/08/07 06:24:01;;;;;;;1999.90;999.90;;;;;;;;;;6733764;88;20243;-81
2023/08/07 06:34:02;;;;;;;1999.90;999.90;;;;;;;;;;6729215;88;20834;-81
2023/08/07 06:44:03;;;;;;;1999.90;999.90;;;;;;;;;;6727050;88;20254;-80
2023/08/07 06:54:04;;;;;;;1999.90;999.90;;;;;;;;;;6725553;88;20259;-80
2023/08/07 07:04:05;;;;;;;1999.90;999.90;;;;;;;;;;6724569;88;20956;-80
2023/08/07 07:14:06;;;;;;;1999.90;999.90;;;;;;;;;;6747566;88;20219;-79
2023/08/07 07:24:07;;;;;;;1999.90;999.90;;;;;;;;;;6739986;88;20970;-78
2023/08/07 07:34:08;;;;;;;1999.90;999.90;;;;;;;;;;6742524;88;20289;-79
2023/08/07 07:44:09;;;;;;;1999.90;999.90;;;;;;;;;;6742371;88;20227;-79
2023/08/07 07:54:11;;;;;;;1999.90;999.90;;;;;;;;;;6748214;88;20592;-79
2023/08/07 08:04:12;;;;;;;1999.90;999.90;;;;;;;;;;6753094;77;20283;-79
2023/08/07 08:14:13;;;;;;;1999.90;999.90;;;;;;;;;;6742678;88;20673;-78
2023/08/07 08:24:14;;;;;;;1999.90;999.90;;;;;;;;;;6744528;88;20672;-78
2023/08/07 08:34:15;;;;;;;1999.90;999.90;;;;;;;;;;6746172;88;20224;-77
2023/08/07 08:44:17;;;;;;;1999.90;999.90;;;;;;;;;;6747027;88;20659;-78
2023/08/07 08:54:18;;;;;;;1999.90;999.90;;;;;;;;;;6738293;88;20648;-78
2023/08/07 09:04:19;;;;;;;1999.90;999.90;;;;;;;;;;6755683;88;20206;-78
2023/08/07 09:14:22;;;;;;;1999.90;999.90;;;;;;;;;;6764140;88;20180;-78
2023/08/07 09:24:24;;;;;;;1999.90;999.90;;;;;;;;;;6761543;88;20188;-78
2023/08/07 09:34:25;;;;;;;1999.90;999.90;;;;;;;;;;6760559;87;20317;-77
2023/08/07 09:44:26;;;;;;;1999.90;999.90;;;;;;;;;;6764213;87;20260;-76
2023/08/07 09:54:27;;;;;;;1999.90;999.90;;;;;;;;;;6759955;88;20185;-78
2023/08/07 10:04:28;;;;;;;1999.90;999.90;;;;;;;;;;6763513;87;20199;-77
2023/08/07 10:14:29;;;;;;;1999.90;999.90;;;;;;;;;;6764295;88;20176;-77
2023/08/07 10:24:30;;;;;;;1999.90;999.90;;;;;;;;;;6755881;88;20279;-77
2023/08/07 10:34:34;;;;;;;1999.90;999.90;;;;;;;;;;6759486;88;20263;-77
2023/08/07 10:44:49;;;;;;;1999.90;999.90;;;;;;;;;;6762822;87;20242;-77
2023/08/07 10:54:50;;;;;;;1999.90;999.90;;;;;;;;;;6757915;87;20658;-77
2023/08/07 11:04:52;;;;;;;1999.90;999.90;;;;;;;;;;6748584;88;20668;-77
2023/08/07 11:14:56;;;;;;;1999.90;999.90;;;;;;;;;;6744870;88;20192;-78
2023/08/07 11:24:57;;;;;;;1999.90;999.90;;;;;;;;;;6740942;88;20268;-78
2023/08/07 11:34:58;;;;;;;1999.90;999.90;;;;;;;;;;6741196;88;20201;-78
2023/08/07 11:44:59;;;;;;;1999.90;999.90;;;;;;;;;;6744183;88;20318;-79
2023/08/07 11:55:03;;;;;;;1999.90;999.90;;;;;;;;;;6748146;88;20189;-78
2023/08/07 12:05:04;;;;;;;1999.90;999.90;;;;;;;;;;6737881;87;20283;-78
2023/08/07 12:15:09;;;;;;;1999.90;999.90;;;;;;;;;;6740234;88;20196;-79
2023/08/07 12:25:10;;;;;;;1999.90;999.90;;;;;;;;;;6735102;88;20193;-78
2023/08/07 12:35:11;;;;;;;1999.90;999.90;;;;;;;;;;6740644;88;20210;-80
2023/08/07 12:45:13;;;;;;;1999.90;999.90;;;;;;;;;;6741839;88;20540;-79
2023/08/07 12:55:14;;;;;;;1999.90;999.90;;;;;;;;;;6747195;88;20217;-78
2023/08/07 13:05:19;;;;;;;1999.90;999.90;;;;;;;;;;6748711;87;20218;-78
2023/08/07 13:15:20;;;;;;;1999.90;999.90;;;;;;;;;;6750996;88;20293;-79
2023/08/07 13:25:21;;;;;;;1999.90;999.90;;;;;;;;;;6759392;88;20189;-78
2023/08/07 13:35:22;;;;;;;1999.90;999.90;;;;;;;;;;6752217;88;20185;-78
2023/08/07 13:45:23;;;;;;;1999.90;999.90;;;;;;;;;;6750923;88;20231;-78
2023/08/07 13:55:24;;;;;;;1999.90;999.90;;;;;;;;;;6751486;88;20257;-77
2023/08/07 14:26:31;;;;;;;1999.90;999.90;;;;;;;;;;6731413;88;20266;-85
2023/08/07 15:06:48;;;;;;;1999.90;999.90;;;;;;;;;;4755889;77;20177;-81
2023/08/07 15:16:49;;;;;;;1999.90;999.90;;;;;;;;;;6697495;88;20641;-85
2023/08/07 15:26:50;;;;;;;1999.90;999.90;;;;;;;;;;6679486;89;20306;-81
2023/08/07 15:36:51;;;;;;;1999.90;999.90;;;;;;;;;;6694780;88;20176;-85
2023/08/07 15:46:52;;;;;;;1999.90;999.90;;;;;;;;;;6676645;89;20278;-79
2023/08/07 15:56:53;;;;;;;1999.90;999.90;;;;;;;;;;6693331;88;20158;-81
2023/08/07 16:06:54;;;;;;;1999.90;999.90;;;;;;;;;;6694140;88;20192;-83
2023/08/07 16:16:55;;;;;;;1999.90;999.90;;;;;;;;;;6694719;88;20173;-80
2023/08/07 16:26:56;;;;;;;1999.90;999.90;;;;;;;;;;6687000;89;20281;-80
2023/08/07 16:36:57;;;;;;;1999.90;999.90;;;;;;;;;;6708437;88;20195;-80
2023/08/07 16:46:58;;;;;;;1999.90;999.90;;;;;;;;;;6697177;88;20203;-80
2023/08/07 16:56:59;;;;;;;1999.90;999.90;;;;;;;;;;6700475;88;20159;-85
2023/08/07 17:07:01;;;;;;;1999.90;999.90;;;;;;;;;;6704879;88;20308;-82
2023/08/07 17:17:02;;;;;;;1999.90;999.90;;;;;;;;;;6709480;88;20245;-81
2023/08/07 17:27:03;;;;;;;1999.90;999.90;;;;;;;;;;6710887;88;20203;-80
2023/08/07 17:37:05;;;;;;;1999.90;999.90;;;;;;;;;;6663604;89;20158;-80
2023/08/07 17:47:07;;;;;;;1999.90;999.90;;;;;;;;;;6643850;89;20186;-81
2023/08/07 17:57:08;;;;;;;1999.90;999.90;;;;;;;;;;6645524;89;20170;-81
2023/08/07 18:07:10;;;;;;;1999.90;999.90;;;;;;;;;;6672327;88;20186;-82
2023/08/07 18:17:10;;;;;;;1999.90;999.90;;;;;;;;;;6664548;88;20164;-82
2023/08/07 18:27:12;;;;;;;1999.90;999.90;;;;;;;;;;6713355;88;20174;-82
2023/08/07 18:37:13;;;;;;;1999.90;999.90;;;;;;;;;;6710191;88;20191;-81
2023/08/07 18:47:14;;;;;;;1999.90;999.90;;;;;;;;;;6728747;88;20950;-83
2023/08/07 18:57:15;;;;;;;1999.90;999.90;;;;;;;;;;6698923;88;21150;-82
2023/08/07 19:07:16;;;;;;;1999.90;999.90;;;;;;;;;;6699197;88;20192;-84
2023/08/07 19:17:17;;;;;;;1999.90;999.90;;;;;;;;;;6698483;88;20153;-81
2023/08/07 19:27:18;;;;;;;1999.90;999.90;;;;;;;;;;6681250;89;20327;-80
2023/08/07 19:37:19;;;;;;;1999.90;999.90;;;;;;;;;;6676229;89;20176;-79
2023/08/07 19:47:20;;;;;;;1999.90;999.90;;;;;;;;;;6677663;89;20221;-80
2023/08/07 19:57:21;;;;;;;1999.90;999.90;;;;;;;;;;6710037;88;20171;-82
2023/08/07 20:07:22;;;;;;;1999.90;999.90;;;;;;;;;;6683457;78;20305;-79
2023/08/07 20:17:23;;;;;;;1999.90;999.90;;;;;;;;;;6683265;88;20208;-76
2023/08/07 20:27:24;;;;;;;1999.90;999.90;;;;;;;;;;6685992;88;20793;-77
2023/08/07 20:37:25;;;;;;;1999.90;999.90;;;;;;;;;;6675167;88;20806;-76
2023/08/07 20:47:26;;;;;;;1999.90;999.90;;;;;;;;;;6678071;88;20198;-76
2023/08/07 20:57:27;;;;;;;1999.90;999.90;;;;;;;;;;6691110;88;20203;-76
2023/08/07 21:07:28;;;;;;;1999.90;999.90;;;;;;;;;;6676619;88;20280;-77
2023/08/07 21:17:30;;;;;;;1999.90;999.90;;;;;;;;;;6685553;88;20198;-77
2023/08/07 21:27:31;;;;;;;1999.90;999.90;;;;;;;;;;6687941;88;20183;-78
2023/08/07 21:37:32;;;;;;;1999.90;999.90;;;;;;;;;;6686718;88;20211;-77
2023/08/07 21:47:34;;;;;;;1999.90;999.90;;;;;;;;;;6690981;88;20195;-77
2023/08/07 21:57:35;;;;;;;1999.90;999.90;;;;;;;;;;6694604;85;91770;-77
2023/08/07 22:07:36;;;;;;;1999.90;999.90;;;;;;;;;;6671029;88;20219;-78
2023/08/07 22:17:37;;;;;;;1999.90;999.90;;;;;;;;;;6671622;89;20324;-76
2023/08/07 22:27:38;;;;;;;1999.90;999.90;;;;;;;;;;6673733;89;20203;-78
2023/08/07 22:37:39;;;;;;;1999.90;999.90;;;;;;;;;;6670652;89;20300;-78
2023/08/07 22:47:40;;;;;;;1999.90;999.90;;;;;;;;;;6635668;89;20255;-78
2023/08/07 22:57:41;;;;;;;1999.90;999.90;;;;;;;;;;6666446;89;20213;-78
2023/08/07 23:07:45;;;;;;;1999.90;999.90;;;;;;;;;;6675874;89;20231;-78
2023/08/07 23:17:47;;;;;;;1999.90;999.90;;;;;;;;;;6668972;88;20182;-78
2023/08/07 23:27:48;;;;;;;1999.90;999.90;;;;;;;;;;6671672;88;20191;-79
2023/08/07 23:37:49;;;;;;;1999.90;999.90;;;;;;;;;;6585430;89;20233;-79
2023/08/07 23:47:50;;;;;;;1999.90;999.90;;;;;;;;;;6668122;89;20195;-79
2023/08/07 23:57:51;;;;;;;1999.90;999.90;;;;;;;;;;6664203;89;20475;-78
